sensor_id;sensor_type;location;lat;lon;timestamp;P1;durP1;ratioP1;P2;durP2;ratioP2
48987;SDS011;34799;51.440;-2.534;2023-03-03T14:38:34;5.03;;;2.58;;
48987;SDS011;34799;51.440;-2.534;2023-03-03T14:43:43;7.10;;;3.42;;
48987;SDS011;34799;51.440;-2.534;2023-03-03T14:49:04;9.05;;;3.70;;
48987;SDS011;34799;51.440;-2.534;2023-03-03T14:54:20;10.77;;;4.22;;
48987;SDS011;34799;51.440;-2.534;2023-03-03T14:56:55;8.02;;;4.30;;
48987;SDS011;34799;51.440;-2.534;2023-03-03T14:59:26;7.68;;;4.28;;
48987;SDS011;34799;51.440;-2.534;2023-03-03T15:04:46;10.65;;;4.38;;
48987;SDS011;34799;51.440;-2.534;2023-03-03T15:07:19;10.27;;;4.93;;
48987;SDS011;34799;51.440;-2.534;2023-03-03T15:10:00;11.02;;;5.30;;
48987;SDS011;34799;51.440;-2.534;2023-03-03T15:17:35;12.43;;;6.28;;
48987;SDS011;34799;51.440;-2.534;2023-03-03T15:23:51;10.27;;;5.82;;
48987;SDS011;34799;51.440;-2.534;2023-03-03T15:26:29;11.30;;;5.95;;
48987;SDS011;34799;51.440;-2.534;2023-03-03T15:29:16;11.68;;;6.00;;
48987;SDS011;34799;51.440;-2.534;2023-03-03T15:31:59;12.00;;;5.88;;
48987;SDS011;34799;51.440;-2.534;2023-03-03T15:37:57;12.27;;;6.35;;
48987;SDS011;34799;51.440;-2.534;2023-03-03T15:40:47;13.07;;;6.28;;
48987;SDS011;34799;51.440;-2.534;2023-03-03T15:43:36;14.05;;;6.55;;
48987;SDS011;34799;51.440;-2.534;2023-03-03T15:51:58;14.07;;;6.07;;
48987;SDS011;34799;51.440;-2.534;2023-03-03T15:55:03;14.43;;;6.30;;
48987;SDS011;34799;51.440;-2.534;2023-03-03T15:58:12;12.00;;;6.03;;
48987;SDS011;34799;51.440;-2.534;2023-03-03T16:03:30;14.00;;;6.65;;
48987;SDS011;34799;51.440;-2.534;2023-03-03T16:06:09;13.13;;;7.20;;
48987;SDS011;34799;51.440;-2.534;2023-03-03T16:11:26;16.63;;;7.90;;
48987;SDS011;34799;51.440;-2.534;2023-03-03T16:23:20;12.43;;;6.47;;
48987;SDS011;34799;51.440;-2.534;2023-03-03T16:31:56;15.65;;;6.18;;
48987;SDS011;34799;51.440;-2.534;2023-03-03T16:37:36;14.48;;;6.47;;
48987;SDS011;34799;51.440;-2.534;2023-03-03T16:40:21;11.68;;;6.20;;
48987;SDS011;34799;51.440;-2.534;2023-03-03T16:43:38;11.88;;;6.38;;
48987;SDS011;34799;51.440;-2.534;2023-03-03T16:46:37;15.07;;;6.47;;
48987;SDS011;34799;51.440;-2.534;2023-03-03T16:51:44;12.68;;;6.40;;
48987;SDS011;34799;51.440;-2.534;2023-03-03T16:54:38;13.18;;;5.90;;
48987;SDS011;34799;51.440;-2.534;2023-03-03T17:00:13;10.73;;;5.50;;
48987;SDS011;34799;51.440;-2.534;2023-03-03T17:05:38;9.65;;;5.30;;
48987;SDS011;34799;51.440;-2.534;2023-03-03T17:17:12;12.07;;;5.55;;
48987;SDS011;34799;51.440;-2.534;2023-03-03T17:25:40;8.75;;;4.65;;
48987;SDS011;34799;51.440;-2.534;2023-03-03T17:31:33;11.57;;;5.57;;
48987;SDS011;34799;51.440;-2.534;2023-03-03T17:45:19;10.35;;;5.65;;
48987;SDS011;34799;51.440;-2.534;2023-03-03T17:47:52;9.90;;;5.20;;
48987;SDS011;34799;51.440;-2.534;2023-03-03T17:56:16;15.00;;;5.25;;
48987;SDS011;34799;51.440;-2.534;2023-03-03T18:10:27;13.90;;;5.93;;
48987;SDS011;34799;51.440;-2.534;2023-03-03T18:21:13;12.15;;;5.70;;
48987;SDS011;34799;51.440;-2.534;2023-03-03T18:23:42;13.30;;;6.68;;
48987;SDS011;34799;51.440;-2.534;2023-03-03T18:31:49;13.93;;;5.82;;
48987;SDS011;34799;51.440;-2.534;2023-03-03T18:34:33;11.75;;;5.95;;
48987;SDS011;34799;51.440;-2.534;2023-03-03T18:39:39;13.73;;;6.68;;
48987;SDS011;34799;51.440;-2.534;2023-03-03T18:42:39;12.73;;;6.60;;
48987;SDS011;34799;51.440;-2.534;2023-03-03T18:50:37;13.18;;;5.85;;
48987;SDS011;34799;51.440;-2.534;2023-03-03T18:53:16;13.02;;;5.55;;
48987;SDS011;34799;51.440;-2.534;2023-03-03T18:55:52;9.80;;;5.25;;
48987;SDS011;34799;51.440;-2.534;2023-03-03T18:58:38;12.25;;;5.63;;
48987;SDS011;34799;51.440;-2.534;2023-03-03T19:06:29;11.95;;;5.40;;
48987;SDS011;34799;51.440;-2.534;2023-03-03T19:09:04;11.93;;;5.65;;
48987;SDS011;34799;51.440;-2.534;2023-03-03T19:11:40;12.00;;;5.57;;
48987;SDS011;34799;51.440;-2.534;2023-03-03T19:16:57;12.63;;;5.85;;
48987;SDS011;34799;51.440;-2.534;2023-03-03T19:20:07;15.18;;;6.40;;
48987;SDS011;34799;51.440;-2.534;2023-03-03T19:22:46;12.05;;;6.32;;
48987;SDS011;34799;51.440;-2.534;2023-03-03T19:25:25;12.48;;;6.32;;
48987;SDS011;34799;51.440;-2.534;2023-03-03T19:30:56;11.70;;;5.53;;
48987;SDS011;34799;51.440;-2.534;2023-03-03T19:36:04;10.68;;;5.43;;
48987;SDS011;34799;51.440;-2.534;2023-03-03T19:47:00;14.98;;;5.45;;
48987;SDS011;34799;51.440;-2.534;2023-03-03T19:52:07;11.38;;;5.53;;
48987;SDS011;34799;51.440;-2.534;2023-03-03T20:02:47;10.13;;;5.13;;
48987;SDS011;34799;51.440;-2.534;2023-03-03T20:08:17;12.15;;;5.40;;
48987;SDS011;34799;51.440;-2.534;2023-03-03T20:10:54;10.35;;;5.22;;
48987;SDS011;34799;51.440;-2.534;2023-03-03T20:16:36;11.25;;;5.15;;
48987;SDS011;34799;51.440;-2.534;2023-03-03T20:19:14;12.48;;;5.57;;
48987;SDS011;34799;51.440;-2.534;2023-03-03T20:43:44;12.00;;;6.55;;
48987;SDS011;34799;51.440;-2.534;2023-03-03T20:46:31;12.65;;;6.47;;
48987;SDS011;34799;51.440;-2.534;2023-03-03T20:49:15;12.88;;;6.55;;
48987;SDS011;34799;51.440;-2.534;2023-03-03T20:54:41;12.93;;;6.65;;
48987;SDS011;34799;51.440;-2.534;2023-03-03T20:57:33;13.57;;;6.40;;
48987;SDS011;34799;51.440;-2.534;2023-03-03T21:00:28;14.10;;;6.03;;
48987;SDS011;34799;51.440;-2.534;2023-03-03T21:05:58;12.32;;;6.10;;
48987;SDS011;34799;51.440;-2.534;2023-03-03T21:08:42;16.90;;;6.65;;
48987;SDS011;34799;51.440;-2.534;2023-03-03T21:11:19;13.90;;;6.85;;
48987;SDS011;34799;51.440;-2.534;2023-03-03T21:13:58;13.40;;;7.25;;
48987;SDS011;34799;51.440;-2.534;2023-03-03T21:16:39;17.48;;;6.90;;
48987;SDS011;34799;51.440;-2.534;2023-03-03T21:19:12;16.50;;;6.82;;
48987;SDS011;34799;51.440;-2.534;2023-03-03T21:22:00;15.38;;;6.72;;
48987;SDS011;34799;51.440;-2.534;2023-03-03T21:27:30;13.90;;;6.78;;
48987;SDS011;34799;51.440;-2.534;2023-03-03T21:32:45;14.35;;;7.18;;
48987;SDS011;34799;51.440;-2.534;2023-03-03T21:35:19;12.70;;;6.80;;
48987;SDS011;34799;51.440;-2.534;2023-03-03T21:37:51;11.65;;;6.00;;
48987;SDS011;34799;51.440;-2.534;2023-03-03T21:40:22;16.25;;;7.72;;
48987;SDS011;34799;51.440;-2.534;2023-03-03T21:42:51;16.88;;;7.45;;
48987;SDS011;34799;51.440;-2.534;2023-03-03T21:45:21;14.63;;;7.20;;
48987;SDS011;34799;51.440;-2.534;2023-03-03T21:47:50;13.63;;;6.68;;
48987;SDS011;34799;51.440;-2.534;2023-03-03T21:50:20;16.85;;;7.32;;
48987;SDS011;34799;51.440;-2.534;2023-03-03T21:52:48;15.48;;;6.97;;
48987;SDS011;34799;51.440;-2.534;2023-03-03T21:58:12;11.82;;;6.40;;
48987;SDS011;34799;51.440;-2.534;2023-03-03T22:00:40;13.50;;;6.95;;
48987;SDS011;34799;51.440;-2.534;2023-03-03T22:03:09;15.60;;;7.35;;
48987;SDS011;34799;51.440;-2.534;2023-03-03T22:05:37;14.15;;;7.47;;
48987;SDS011;34799;51.440;-2.534;2023-03-03T22:08:14;15.07;;;7.00;;
48987;SDS011;34799;51.440;-2.534;2023-03-03T22:10:48;12.75;;;6.90;;
48987;SDS011;34799;51.440;-2.534;2023-03-03T22:13:20;14.80;;;7.45;;
48987;SDS011;34799;51.440;-2.534;2023-03-03T22:15:48;14.57;;;7.32;;
48987;SDS011;34799;51.440;-2.534;2023-03-03T22:18:16;16.65;;;6.82;;
48987;SDS011;34799;51.440;-2.534;2023-03-03T22:20:44;14.88;;;6.80;;
48987;SDS011;34799;51.440;-2.534;2023-03-03T22:23:13;14.57;;;6.75;;
48987;SDS011;34799;51.440;-2.534;2023-03-03T22:25:41;13.85;;;7.57;;
48987;SDS011;34799;51.440;-2.534;2023-03-03T22:28:08;14.85;;;6.70;;
48987;SDS011;34799;51.440;-2.534;2023-03-03T22:30:35;14.95;;;7.05;;
48987;SDS011;34799;51.440;-2.534;2023-03-03T22:33:02;13.40;;;7.20;;
48987;SDS011;34799;51.440;-2.534;2023-03-03T22:35:30;16.08;;;7.25;;
48987;SDS011;34799;51.440;-2.534;2023-03-03T22:37:58;14.20;;;6.97;;
48987;SDS011;34799;51.440;-2.534;2023-03-03T22:40:25;12.38;;;6.22;;
48987;SDS011;34799;51.440;-2.534;2023-03-03T22:42:53;14.95;;;6.60;;
48987;SDS011;34799;51.440;-2.534;2023-03-03T22:45:20;15.63;;;7.35;;
48987;SDS011;34799;51.440;-2.534;2023-03-03T22:47:47;13.43;;;6.70;;
48987;SDS011;34799;51.440;-2.534;2023-03-03T22:50:15;13.32;;;6.65;;
48987;SDS011;34799;51.440;-2.534;2023-03-03T22:52:42;14.70;;;7.22;;
48987;SDS011;34799;51.440;-2.534;2023-03-03T22:55:09;13.25;;;7.18;;
48987;SDS011;34799;51.440;-2.534;2023-03-03T22:57:37;13.30;;;7.03;;
48987;SDS011;34799;51.440;-2.534;2023-03-03T23:00:05;15.98;;;8.32;;
48987;SDS011;34799;51.440;-2.534;2023-03-03T23:02:34;14.50;;;7.45;;
48987;SDS011;34799;51.440;-2.534;2023-03-03T23:05:01;17.83;;;7.82;;
48987;SDS011;34799;51.440;-2.534;2023-03-03T23:07:34;12.98;;;6.70;;
48987;SDS011;34799;51.440;-2.534;2023-03-03T23:10:03;13.45;;;6.95;;
48987;SDS011;34799;51.440;-2.534;2023-03-03T23:12:30;15.35;;;7.90;;
48987;SDS011;34799;51.440;-2.534;2023-03-03T23:14:58;12.75;;;6.75;;
48987;SDS011;34799;51.440;-2.534;2023-03-03T23:17:26;12.32;;;6.88;;
48987;SDS011;34799;51.440;-2.534;2023-03-03T23:19:54;15.05;;;6.80;;
48987;SDS011;34799;51.440;-2.534;2023-03-03T23:22:21;13.25;;;6.90;;
48987;SDS011;34799;51.440;-2.534;2023-03-03T23:24:47;14.02;;;6.93;;
48987;SDS011;34799;51.440;-2.534;2023-03-03T23:27:15;14.23;;;7.60;;
48987;SDS011;34799;51.440;-2.534;2023-03-03T23:29:41;13.90;;;6.95;;
48987;SDS011;34799;51.440;-2.534;2023-03-03T23:32:09;14.57;;;6.80;;
48987;SDS011;34799;51.440;-2.534;2023-03-03T23:34:37;13.90;;;7.07;;
48987;SDS011;34799;51.440;-2.534;2023-03-03T23:37:04;12.77;;;7.03;;
48987;SDS011;34799;51.440;-2.534;2023-03-03T23:39:33;13.52;;;6.65;;
48987;SDS011;34799;51.440;-2.534;2023-03-03T23:42:01;13.32;;;7.22;;
48987;SDS011;34799;51.440;-2.534;2023-03-03T23:44:29;16.15;;;6.38;;
48987;SDS011;34799;51.440;-2.534;2023-03-03T23:46:57;13.50;;;6.65;;
48987;SDS011;34799;51.440;-2.534;2023-03-03T23:49:24;14.07;;;6.90;;
48987;SDS011;34799;51.440;-2.534;2023-03-03T23:51:51;14.82;;;7.35;;
48987;SDS011;34799;51.440;-2.534;2023-03-03T23:54:18;15.75;;;7.70;;
48987;SDS011;34799;51.440;-2.534;2023-03-03T23:56:45;14.15;;;6.78;;
48987;SDS011;34799;51.440;-2.534;2023-03-03T23:59:12;14.45;;;7.32;;
